Time;durP1;ratioP1;P1;durP2;ratioP2;P2;SDS_P1;SDS_P2;PMS_P1;PMS_P2;Temp;Humidity;BMP_temperature;BMP_pressure;BME280_temperature;BME280_humidity;BME280_pressure;Samples;Min_cycle;Max_cycle;Signal;HPM_P1;HPM_P2
2022/01/17 00:00:57;;;;;;;56.17;23.55;;;;;;;;;;4934673;29;20366;-66
2022/01/17 00:03:26;;;;;;;18.65;11.05;;;;;;;;;;4934321;29;20503;-66
2022/01/17 00:05:53;;;;;;;12.57;8.35;;;;;;;;;;4934400;29;20467;-66
2022/01/17 00:08:20;;;;;;;13.77;8.90;;;;;;;;;;4934105;29;20581;-66
2022/01/17 00:10:47;;;;;;;14.57;8.70;;;;;;;;;;4934056;29;20529;-66
2022/01/17 00:13:23;;;;;;;15.48;10.00;;;;;;;;;;4933813;29;20130;-66
2022/01/17 00:15:54;;;;;;;14.82;10.27;;;;;;;;;;4934247;29;20107;-67
2022/01/17 00:18:40;;;;;;;14.57;9.75;;;;;;;;;;4933980;29;20421;-67
2022/01/17 00:21:06;;;;;;;12.88;8.55;;;;;;;;;;4934297;29;20193;-67
2022/01/17 00:23:33;;;;;;;16.35;10.15;;;;;;;;;;4934004;29;20518;-66
2022/01/17 00:26:00;;;;;;;20.13;9.77;;;;;;;;;;4934942;29;20115;-67
2022/01/17 00:28:27;;;;;;;21.13;13.05;;;;;;;;;;4933754;29;20052;-66
2022/01/17 00:30:53;;;;;;;23.95;13.45;;;;;;;;;;4933146;29;20103;-67
2022/01/17 00:33:20;;;;;;;26.25;13.77;;;;;;;;;;4936702;29;20060;-67
2022/01/17 00:35:46;;;;;;;26.88;15.25;;;;;;;;;;4935237;29;20055;-65
2022/01/17 00:38:13;;;;;;;23.63;14.65;;;;;;;;;;4927496;29;20048;-66
2022/01/17 00:40:43;;;;;;;22.55;15.13;;;;;;;;;;4918222;29;20498;-66
2022/01/17 00:43:11;;;;;;;27.33;15.35;;;;;;;;;;4918100;29;20060;-66
2022/01/17 00:45:40;;;;;;;22.13;14.32;;;;;;;;;;4917986;29;20052;-66
2022/01/17 00:48:07;;;;;;;23.95;15.32;;;;;;;;;;4917993;29;20079;-66
2022/01/17 00:50:37;;;;;;;25.92;15.52;;;;;;;;;;4917931;29;20456;-66
2022/01/17 00:53:05;;;;;;;23.73;14.10;;;;;;;;;;4917924;29;20107;-67
2022/01/17 00:55:32;;;;;;;23.25;14.57;;;;;;;;;;4917897;29;20056;-66
2022/01/17 00:57:59;;;;;;;27.38;13.68;;;;;;;;;;4917715;29;20111;-65
2022/01/17 01:00:26;;;;;;;21.38;14.38;;;;;;;;;;4917752;29;20052;-66
2022/01/17 01:02:54;;;;;;;21.70;13.48;;;;;;;;;;4917629;29;20059;-65
2022/01/17 01:05:20;;;;;;;24.38;14.35;;;;;;;;;;4917748;29;20472;-66
2022/01/17 01:07:47;;;;;;;24.23;14.20;;;;;;;;;;4917716;29;20718;-67
2022/01/17 01:10:14;;;;;;;23.95;13.82;;;;;;;;;;4917679;29;20463;-66
2022/01/17 01:12:42;;;;;;;22.75;13.88;;;;;;;;;;4917375;29;20052;-66
2022/01/17 01:15:13;;;;;;;25.63;14.93;;;;;;;;;;4917649;29;20131;-66
2022/01/17 01:17:56;;;;;;;25.30;16.05;;;;;;;;;;4917398;29;20131;-66
2022/01/17 01:28:29;;;;;;;23.08;15.32;;;;;;;;;;4917233;29;20060;-65
2022/01/17 01:30:57;;;;;;;26.88;16.25;;;;;;;;;;4917272;29;20048;-66
2022/01/17 01:33:37;;;;;;;29.52;16.92;;;;;;;;;;4917150;29;20056;-66
2022/01/17 01:36:09;;;;;;;26.98;16.35;;;;;;;;;;4917577;29;20080;-67
2022/01/17 01:38:39;;;;;;;32.88;18.85;;;;;;;;;;4917109;29;20084;-66
2022/01/17 01:41:05;;;;;;;34.00;18.27;;;;;;;;;;4917173;29;20044;-66
2022/01/17 01:43:32;;;;;;;27.58;16.45;;;;;;;;;;4917060;29;20451;-67
2022/01/17 01:46:01;;;;;;;30.52;17.85;;;;;;;;;;4917280;29;20056;-67
2022/01/17 01:48:32;;;;;;;29.98;17.40;;;;;;;;;;4916086;29;20083;-67
2022/01/17 01:50:59;;;;;;;36.78;17.90;;;;;;;;;;4915760;29;20104;-66
2022/01/17 01:53:26;;;;;;;30.80;16.63;;;;;;;;;;4916741;29;20095;-67
2022/01/17 01:55:55;;;;;;;30.25;16.58;;;;;;;;;;4916771;29;20072;-66
2022/01/17 01:58:23;;;;;;;29.55;16.98;;;;;;;;;;4916619;29;20472;-67
2022/01/17 02:00:50;;;;;;;28.00;15.68;;;;;;;;;;4916707;29;20055;-67
2022/01/17 02:03:16;;;;;;;27.40;15.93;;;;;;;;;;4916749;29;20052;-67
2022/01/17 02:05:44;;;;;;;25.80;15.40;;;;;;;;;;4916714;29;20048;-66
2022/01/17 02:08:11;;;;;;;26.42;14.48;;;;;;;;;;4920229;29;20052;-67
2022/01/17 02:10:38;;;;;;;25.80;15.27;;;;;;;;;;4935387;29;20423;-66
2022/01/17 02:13:04;;;;;;;23.67;14.63;;;;;;;;;;4935709;29;20048;-67
2022/01/17 02:15:31;;;;;;;25.40;14.30;;;;;;;;;;4935690;29;20055;-67
2022/01/17 02:17:58;;;;;;;24.20;14.13;;;;;;;;;;4935495;29;20051;-66
2022/01/17 02:20:35;;;;;;;23.65;14.60;;;;;;;;;;4935498;29;20126;-66
2022/01/17 02:23:04;;;;;;;24.70;15.50;;;;;;;;;;4916654;29;20084;-65
2022/01/17 02:25:31;;;;;;;24.25;14.50;;;;;;;;;;4916544;29;20111;-66
2022/01/17 02:27:57;;;;;;;21.80;12.88;;;;;;;;;;4916099;29;20052;-65
2022/01/17 02:30:26;;;;;;;26.70;14.20;;;;;;;;;;4916365;29;20048;-67
2022/01/17 02:32:53;;;;;;;26.52;15.13;;;;;;;;;;4916011;29;20052;-66
2022/01/17 02:35:22;;;;;;;26.88;15.07;;;;;;;;;;4916624;29;20111;-65
2022/01/17 02:37:49;;;;;;;25.10;14.20;;;;;;;;;;4915883;29;20408;-65
2022/01/17 02:40:17;;;;;;;25.75;15.05;;;;;;;;;;4916330;29;20107;-65
2022/01/17 02:42:45;;;;;;;25.25;14.45;;;;;;;;;;4934960;29;20051;-67
2022/01/17 02:45:30;;;;;;;24.15;14.52;;;;;;;;;;4933690;29;20102;-65
2022/01/17 02:48:04;;;;;;;24.38;13.95;;;;;;;;;;4916028;29;20055;-66
2022/01/17 02:50:30;;;;;;;25.55;14.73;;;;;;;;;;4915916;29;20052;-66
2022/01/17 02:53:02;;;;;;;23.67;14.57;;;;;;;;;;4915712;29;20495;-67
2022/01/17 02:55:29;;;;;;;24.70;14.68;;;;;;;;;;4915773;29;20052;-66
2022/01/17 02:57:57;;;;;;;26.98;14.88;;;;;;;;;;4915873;29;20472;-67
2022/01/17 03:00:24;;;;;;;23.25;14.07;;;;;;;;;;4915597;29;20563;-67
2022/01/17 03:02:50;;;;;;;26.95;15.68;;;;;;;;;;4915483;29;20115;-66
2022/01/17 03:05:18;;;;;;;58.13;25.42;;;;;;;;;;4915653;29;20083;-65
2022/01/17 03:07:45;;;;;;;57.03;25.58;;;;;;;;;;4915463;29;20107;-66
2022/01/17 03:10:27;;;;;;;31.83;18.40;;;;;;;;;;4915665;29;20553;-67
2022/01/17 03:13:01;;;;;;;26.13;15.50;;;;;;;;;;4915463;29;20523;-66
2022/01/17 03:15:27;;;;;;;27.10;15.93;;;;;;;;;;4918875;29;20056;-65
2022/01/17 03:17:55;;;;;;;24.60;14.27;;;;;;;;;;4933147;29;20503;-67
2022/01/17 03:20:21;;;;;;;27.73;15.63;;;;;;;;;;4934570;29;20404;-67
2022/01/17 03:22:48;;;;;;;27.98;16.30;;;;;;;;;;4934261;29;20052;-66
2022/01/17 03:25:14;;;;;;;28.02;16.92;;;;;;;;;;4933884;29;20051;-67
2022/01/17 03:27:41;;;;;;;29.55;17.23;;;;;;;;;;4934509;29;20083;-66
2022/01/17 03:30:08;;;;;;;29.83;16.58;;;;;;;;;;4937769;29;20048;-66
2022/01/17 03:32:34;;;;;;;30.25;17.85;;;;;;;;;;4934316;29;20052;-67
2022/01/17 03:35:01;;;;;;;27.23;18.10;;;;;;;;;;4934127;29;20110;-67
2022/01/17 03:37:28;;;;;;;32.17;16.70;;;;;;;;;;4933922;29;20507;-65
2022/01/17 03:39:55;;;;;;;31.80;18.05;;;;;;;;;;4934418;29;20051;-66
2022/01/17 03:42:23;;;;;;;29.50;17.35;;;;;;;;;;4934442;29;20567;-67
2022/01/17 03:44:50;;;;;;;29.25;17.77;;;;;;;;;;4934123;29;20111;-66
2022/01/17 03:47:17;;;;;;;30.52;18.27;;;;;;;;;;4917714;29;20060;-67
2022/01/17 03:49:44;;;;;;;26.95;17.20;;;;;;;;;;4915269;29;20048;-66
2022/01/17 03:52:10;;;;;;;30.92;16.42;;;;;;;;;;4915403;29;20060;-67
2022/01/17 03:54:38;;;;;;;32.42;18.25;;;;;;;;;;4915231;29;20460;-67
2022/01/17 03:57:04;;;;;;;35.35;19.20;;;;;;;;;;4930200;29;20052;-66
2022/01/17 03:59:32;;;;;;;30.25;17.85;;;;;;;;;;4932055;29;20459;-66
2022/01/17 04:01:58;;;;;;;30.15;17.58;;;;;;;;;;4914093;29;20471;-66
2022/01/17 04:04:25;;;;;;;32.00;18.20;;;;;;;;;;4915052;29;20052;-67
2022/01/17 04:06:52;;;;;;;31.52;17.15;;;;;;;;;;4927918;29;20508;-66
2022/01/17 04:09:18;;;;;;;33.65;18.67;;;;;;;;;;4934046;29;20048;-65
2022/01/17 04:11:45;;;;;;;29.75;18.58;;;;;;;;;;4935722;29;20403;-66
2022/01/17 04:14:11;;;;;;;30.40;19.00;;;;;;;;;;4937705;29;20052;-67
2022/01/17 04:16:38;;;;;;;29.02;17.52;;;;;;;;;;4926311;29;20107;-66
2022/01/17 04:19:05;;;;;;;32.72;18.33;;;;;;;;;;4918675;29;20108;-65
2022/01/17 04:21:38;;;;;;;31.88;18.08;;;;;;;;;;4918593;29;20467;-66
2022/01/17 04:24:04;;;;;;;31.08;18.00;;;;;;;;;;4918498;29;20111;-66
2022/01/17 04:26:31;;;;;;;30.63;17.63;;;;;;;;;;4918468;29;20558;-65
2022/01/17 04:28:57;;;;;;;32.65;19.33;;;;;;;;;;4918527;29;20111;-66
2022/01/17 04:31:24;;;;;;;30.25;17.02;;;;;;;;;;4918320;29;20100;-67
2022/01/17 04:33:51;;;;;;;28.00;16.45;;;;;;;;;;4918142;29;20055;-66
2022/01/17 04:36:17;;;;;;;28.63;17.85;;;;;;;;;;4925869;29;20055;-67
2022/01/17 04:38:44;;;;;;;27.17;16.33;;;;;;;;;;4952421;29;20475;-66
2022/01/17 04:41:16;;;;;;;28.17;17.52;;;;;;;;;;4937512;29;20095;-67
2022/01/17 04:43:55;;;;;;;28.23;17.30;;;;;;;;;;4937026;29;20055;-66
2022/01/17 04:46:22;;;;;;;33.33;18.23;;;;;;;;;;4928265;29;20418;-66
2022/01/17 04:48:49;;;;;;;28.92;17.58;;;;;;;;;;4918163;29;20456;-67
2022/01/17 04:51:15;;;;;;;29.60;16.95;;;;;;;;;;4918202;29;20108;-66
2022/01/17 04:53:53;;;;;;;28.30;18.17;;;;;;;;;;4917739;29;20060;-66
2022/01/17 04:56:20;;;;;;;28.42;16.63;;;;;;;;;;4925048;29;20055;-66
2022/01/17 04:58:46;;;;;;;27.88;16.10;;;;;;;;;;4936641;29;20051;-67
2022/01/17 05:01:13;;;;;;;31.20;17.85;;;;;;;;;;4936925;29;20043;-67
2022/01/17 05:03:40;;;;;;;28.17;16.77;;;;;;;;;;4936826;29;20047;-67
2022/01/17 05:06:06;;;;;;;27.80;16.63;;;;;;;;;;4936183;29;20533;-66
2022/01/17 05:08:33;;;;;;;28.67;16.48;;;;;;;;;;4936631;29;20047;-66
2022/01/17 05:10:59;;;;;;;23.83;14.50;;;;;;;;;;4936792;29;20052;-67
2022/01/17 05:13:32;;;;;;;24.25;15.32;;;;;;;;;;4936561;29;20056;-67
2022/01/17 05:16:11;;;;;;;24.23;14.30;;;;;;;;;;4932467;29;20111;-67
2022/01/17 05:21:04;;;;;;;26.67;15.40;;;;;;;;;;4917594;29;20048;-66
2022/01/17 05:23:31;;;;;;;27.17;15.73;;;;;;;;;;4916171;29;20111;-67
2022/01/17 05:25:57;;;;;;;24.33;15.07;;;;;;;;;;4917865;29;20111;-66
2022/01/17 05:28:24;;;;;;;25.50;13.75;;;;;;;;;;4917488;29;20111;-67
2022/01/17 05:30:51;;;;;;;19.52;11.85;;;;;;;;;;4917223;29;20103;-66
2022/01/17 05:33:17;;;;;;;23.88;13.45;;;;;;;;;;4916093;29;20135;-66
2022/01/17 05:35:44;;;;;;;22.02;12.55;;;;;;;;;;4918965;29;20060;-67
2022/01/17 05:38:11;;;;;;;24.48;12.82;;;;;;;;;;4935821;29;20507;-66
2022/01/17 05:40:38;;;;;;;20.58;12.13;;;;;;;;;;4935977;29;20048;-66
2022/01/17 05:43:04;;;;;;;20.83;11.75;;;;;;;;;;4936031;29;20193;-66
2022/01/17 05:45:31;;;;;;;20.17;12.10;;;;;;;;;;4934868;29;20059;-66
2022/01/17 05:47:57;;;;;;;17.95;11.55;;;;;;;;;;4916904;29;20056;-66
2022/01/17 05:50:24;;;;;;;18.10;11.55;;;;;;;;;;4916923;29;20123;-67
2022/01/17 05:52:51;;;;;;;16.95;11.63;;;;;;;;;;4916689;29;20186;-66
2022/01/17 05:55:17;;;;;;;15.10;10.18;;;;;;;;;;4916938;29;20056;-66
2022/01/17 05:57:44;;;;;;;15.73;9.88;;;;;;;;;;4933366;29;20132;-66
2022/01/17 06:00:14;;;;;;;14.45;9.25;;;;;;;;;;4933142;29;20060;-66
2022/01/17 06:02:40;;;;;;;14.95;9.10;;;;;;;;;;4916491;29;20060;-66
2022/01/17 06:05:07;;;;;;;16.30;10.48;;;;;;;;;;4916940;29;20052;-67
2022/01/17 06:07:34;;;;;;;16.00;9.85;;;;;;;;;;4916574;29;20067;-66
2022/01/17 06:10:01;;;;;;;15.88;9.50;;;;;;;;;;4916576;29;20126;-66
2022/01/17 06:12:27;;;;;;;16.08;9.75;;;;;;;;;;4916901;29;20139;-65
2022/01/17 06:14:57;;;;;;;18.10;10.40;;;;;;;;;;4916543;29;20052;-67
2022/01/17 06:17:23;;;;;;;15.70;9.93;;;;;;;;;;4923672;29;20100;-67
2022/01/17 06:19:50;;;;;;;17.30;10.20;;;;;;;;;;4934512;29;20110;-65
2022/01/17 06:22:16;;;;;;;16.00;10.13;;;;;;;;;;4935720;29;20048;-65
2022/01/17 06:24:43;;;;;;;16.77;10.50;;;;;;;;;;4935267;29;20443;-66
2022/01/17 06:27:10;;;;;;;17.20;10.30;;;;;;;;;;4935213;29;20483;-65
2022/01/17 06:29:37;;;;;;;16.95;9.90;;;;;;;;;;4935241;29;20498;-66
2022/01/17 06:32:04;;;;;;;17.80;10.52;;;;;;;;;;4935260;29;20495;-66
2022/01/17 06:34:51;;;;;;;19.80;11.40;;;;;;;;;;4934644;29;20135;-66
2022/01/17 06:37:18;;;;;;;19.75;11.63;;;;;;;;;;4934882;29;20099;-67
2022/01/17 06:39:45;;;;;;;24.65;13.38;;;;;;;;;;4935032;29;20052;-65
2022/01/17 06:42:11;;;;;;;21.80;12.60;;;;;;;;;;4935198;29;20107;-66
2022/01/17 06:44:38;;;;;;;19.20;12.13;;;;;;;;;;4934862;29;20107;-67
2022/01/17 06:47:05;;;;;;;19.77;11.93;;;;;;;;;;4934966;29;20051;-66
2022/01/17 06:49:31;;;;;;;18.17;11.63;;;;;;;;;;4934875;29;20056;-66
2022/01/17 06:51:58;;;;;;;18.40;10.73;;;;;;;;;;4934865;29;20082;-67
2022/01/17 06:54:25;;;;;;;19.27;11.23;;;;;;;;;;4934714;29;20051;-65
2022/01/17 06:56:51;;;;;;;20.75;11.55;;;;;;;;;;4934928;29;20201;-66
2022/01/17 06:59:18;;;;;;;19.38;11.52;;;;;;;;;;4926652;29;20055;-66
2022/01/17 07:01:44;;;;;;;17.23;10.50;;;;;;;;;;4927831;29;20083;-66
2022/01/17 07:04:11;;;;;;;18.15;10.77;;;;;;;;;;4929206;29;20507;-67
2022/01/17 07:06:38;;;;;;;15.98;9.48;;;;;;;;;;4933775;29;20048;-67
2022/01/17 07:09:05;;;;;;;19.45;10.93;;;;;;;;;;4931947;29;20443;-65
2022/01/17 07:11:41;;;;;;;18.17;11.48;;;;;;;;;;4930945;29;20040;-67
2022/01/17 07:14:09;;;;;;;17.75;9.90;;;;;;;;;;4929467;29;20052;-66
2022/01/17 07:16:38;;;;;;;13.68;9.00;;;;;;;;;;4928713;29;20047;-65
2022/01/17 07:19:05;;;;;;;14.73;9.07;;;;;;;;;;4932521;29;20154;-67
2022/01/17 07:21:32;;;;;;;15.73;9.60;;;;;;;;;;4931259;29;20040;-67
2022/01/17 07:24:03;;;;;;;16.98;11.70;;;;;;;;;;4930368;29;20059;-65
2022/01/17 07:26:29;;;;;;;18.35;11.13;;;;;;;;;;4928188;29;20079;-66
2022/01/17 07:28:56;;;;;;;19.20;10.07;;;;;;;;;;4930560;29;20067;-66
2022/01/17 07:31:23;;;;;;;16.00;10.18;;;;;;;;;;4930631;29;20048;-65
2022/01/17 07:33:55;;;;;;;12.80;8.43;;;;;;;;;;4925942;29;20060;-65
2022/01/17 07:36:28;;;;;;;12.32;7.32;;;;;;;;;;4929534;29;20766;-66
2022/01/17 07:38:55;;;;;;;9.68;6.93;;;;;;;;;;4930933;29;20060;-66
2022/01/17 07:41:21;;;;;;;11.65;8.05;;;;;;;;;;4931134;29;20048;-67
2022/01/17 07:43:57;;;;;;;11.82;7.78;;;;;;;;;;4928557;29;20434;-66
2022/01/17 07:46:29;;;;;;;11.98;7.55;;;;;;;;;;4931110;29;20048;-66
2022/01/17 07:49:03;;;;;;;10.95;7.45;;;;;;;;;;4934190;29;20292;-66
2022/01/17 07:51:30;;;;;;;11.95;7.40;;;;;;;;;;4934917;29;20051;-66
2022/01/17 07:53:57;;;;;;;14.10;10.00;;;;;;;;;;4934120;29;20110;-66
2022/01/17 07:56:24;;;;;;;13.27;8.95;;;;;;;;;;4929569;29;20059;-67
2022/01/17 07:58:50;;;;;;;12.65;8.90;;;;;;;;;;4934690;29;20450;-67
2022/01/17 08:01:17;;;;;;;15.32;9.73;;;;;;;;;;4934164;29;20051;-67
2022/01/17 08:03:44;;;;;;;13.73;8.85;;;;;;;;;;4933210;29;20048;-67
2022/01/17 08:06:11;;;;;;;17.75;10.60;;;;;;;;;;4933537;29;20130;-66
2022/01/17 08:08:38;;;;;;;20.42;11.02;;;;;;;;;;4934368;29;20398;-66
2022/01/17 08:11:05;;;;;;;14.32;8.57;;;;;;;;;;4934347;29;20510;-65
2022/01/17 08:13:32;;;;;;;13.13;9.15;;;;;;;;;;4932196;29;20106;-66
2022/01/17 08:15:59;;;;;;;12.93;8.70;;;;;;;;;;4933666;29;20059;-66
2022/01/17 08:18:25;;;;;;;17.98;8.77;;;;;;;;;;4934687;29;20043;-66
2022/01/17 08:20:52;;;;;;;13.05;9.00;;;;;;;;;;4931783;29;20095;-66
2022/01/17 08:23:19;;;;;;;14.40;7.68;;;;;;;;;;4931595;29;20110;-67
2022/01/17 08:25:45;;;;;;;10.35;6.57;;;;;;;;;;4930406;28;20056;-66
2022/01/17 08:28:13;;;;;;;11.20;5.57;;;;;;;;;;4933888;29;20131;-67
2022/01/17 08:30:40;;;;;;;8.45;5.30;;;;;;;;;;4933189;29;20043;-68
2022/01/17 08:33:27;;;;;;;10.68;6.13;;;;;;;;;;4932231;29;20486;-66
2022/01/17 08:35:53;;;;;;;6.68;4.95;;;;;;;;;;4934030;29;20059;-66
2022/01/17 08:38:40;;;;;;;7.28;4.68;;;;;;;;;;4932898;29;20098;-68
2022/01/17 08:41:07;;;;;;;7.32;4.80;;;;;;;;;;4932614;29;20055;-66
2022/01/17 08:43:33;;;;;;;6.25;4.50;;;;;;;;;;4933839;29;20434;-65
2022/01/17 08:46:00;;;;;;;6.45;4.32;;;;;;;;;;4933857;29;20052;-66
2022/01/17 08:48:27;;;;;;;5.65;4.63;;;;;;;;;;4941498;29;20577;-66
2022/01/17 08:50:53;;;;;;;7.53;5.03;;;;;;;;;;4932003;29;20055;-66
2022/01/17 08:53:20;;;;;;;8.57;5.00;;;;;;;;;;4933697;29;20055;-65
2022/01/17 08:55:47;;;;;;;7.55;5.15;;;;;;;;;;4936352;29;20048;-66
2022/01/17 08:58:14;;;;;;;9.05;5.55;;;;;;;;;;4933004;29;20208;-65
2022/01/17 09:00:41;;;;;;;8.05;5.00;;;;;;;;;;4933527;29;20495;-66
2022/01/17 09:03:19;;;;;;;9.15;4.90;;;;;;;;;;4931517;29;20056;-66
2022/01/17 09:05:46;;;;;;;4.40;3.58;;;;;;;;;;4939832;29;20084;-65
2022/01/17 09:08:12;;;;;;;6.28;5.07;;;;;;;;;;4942247;29;20110;-65
2022/01/17 09:10:39;;;;;;;7.13;4.75;;;;;;;;;;4942621;29;20047;-66
2022/01/17 09:13:07;;;;;;;4.93;3.92;;;;;;;;;;4942446;29;20107;-66
2022/01/17 09:15:34;;;;;;;10.75;4.55;;;;;;;;;;4939583;29;20048;-66
2022/01/17 09:18:00;;;;;;;7.05;4.40;;;;;;;;;;4945196;29;20063;-66
2022/01/17 09:20:27;;;;;;;10.25;4.93;;;;;;;;;;4942912;29;20063;-64
2022/01/17 09:22:54;;;;;;;7.78;4.30;;;;;;;;;;4945351;29;20079;-68
2022/01/17 09:25:20;;;;;;;8.90;4.72;;;;;;;;;;4950447;29;20052;-66
2022/01/17 09:27:47;;;;;;;6.38;4.43;;;;;;;;;;4946041;29;20056;-71
2022/01/17 09:30:14;;;;;;;8.00;5.05;;;;;;;;;;4942947;29;20056;-66
2022/01/17 09:32:41;;;;;;;6.97;5.10;;;;;;;;;;4925182;29;20051;-66
2022/01/17 09:35:10;;;;;;;9.02;6.20;;;;;;;;;;4922737;29;20052;-66
2022/01/17 09:37:37;;;;;;;7.85;5.40;;;;;;;;;;4916999;29;20677;-65
2022/01/17 09:40:05;;;;;;;8.55;6.00;;;;;;;;;;4914954;29;20056;-65
2022/01/17 09:42:36;;;;;;;11.95;5.43;;;;;;;;;;4935941;29;20051;-65
2022/01/17 09:45:08;;;;;;;8.93;6.10;;;;;;;;;;4936341;29;20574;-66
2022/01/17 09:47:37;;;;;;;12.90;7.18;;;;;;;;;;4935744;29;20593;-65
2022/01/17 09:50:08;;;;;;;8.23;6.55;;;;;;;;;;4935696;29;20048;-66
2022/01/17 09:52:35;;;;;;;8.27;5.13;;;;;;;;;;4916928;29;20550;-65
2022/01/17 09:55:22;;;;;;;7.32;4.72;;;;;;;;;;4900495;29;20056;-65
2022/01/17 09:57:53;;;;;;;8.93;6.32;;;;;;;;;;4916944;29;20464;-66
2022/01/17 10:00:26;;;;;;;7.60;5.80;;;;;;;;;;4918357;29;20497;-65
2022/01/17 10:02:55;;;;;;;8.65;6.30;;;;;;;;;;4935844;29;20127;-66
2022/01/17 10:05:22;;;;;;;9.65;6.40;;;;;;;;;;4936070;29;20126;-66
2022/01/17 10:08:06;;;;;;;8.27;5.93;;;;;;;;;;4935457;29;20487;-65
2022/01/17 10:10:40;;;;;;;7.97;5.25;;;;;;;;;;4933651;29;20048;-65
2022/01/17 10:13:13;;;;;;;8.48;5.82;;;;;;;;;;4935653;29;20491;-65
2022/01/17 10:15:48;;;;;;;10.95;5.38;;;;;;;;;;4934801;29;20056;-66
2022/01/17 10:18:29;;;;;;;8.50;5.65;;;;;;;;;;4934648;29;20466;-66
2022/01/17 10:21:01;;;;;;;8.93;5.28;;;;;;;;;;4929535;29;20425;-65
2022/01/17 10:26:50;;;;;;;7.50;5.13;;;;;;;;;;4916643;29;20051;-66
2022/01/17 10:37:22;;;;;;;7.18;5.13;;;;;;;;;;4935575;29;20053;-65
2022/01/17 10:39:57;;;;;;;6.82;4.97;;;;;;;;;;4935136;29;20048;-67
2022/01/17 10:42:35;;;;;;;8.68;5.55;;;;;;;;;;4917921;29;20052;-66
2022/01/17 10:45:05;;;;;;;7.13;4.88;;;;;;;;;;4916242;29;20496;-66
2022/01/17 10:47:35;;;;;;;8.77;5.40;;;;;;;;;;4915965;29;20067;-66
2022/01/17 10:50:05;;;;;;;7.30;5.60;;;;;;;;;;4916305;29;20484;-66
2022/01/17 10:52:35;;;;;;;9.30;5.30;;;;;;;;;;4933485;29;20086;-66
2022/01/17 10:55:21;;;;;;;7.50;5.78;;;;;;;;;;4935454;29;20106;-67
2022/01/17 10:57:50;;;;;;;6.65;5.20;;;;;;;;;;4942020;29;20043;-66
2022/01/17 11:00:20;;;;;;;8.05;5.45;;;;;;;;;;4944281;29;20056;-67
2022/01/17 11:02:49;;;;;;;7.72;6.22;;;;;;;;;;4915894;29;20052;-67
2022/01/17 11:05:19;;;;;;;7.78;5.97;;;;;;;;;;4916486;29;20559;-67
2022/01/17 11:07:47;;;;;;;8.55;5.88;;;;;;;;;;4915718;29;20079;-65
2022/01/17 11:10:16;;;;;;;7.45;5.07;;;;;;;;;;4916254;29;20448;-67
2022/01/17 11:12:42;;;;;;;7.30;5.03;;;;;;;;;;4933349;29;20055;-67
2022/01/17 11:15:13;;;;;;;6.93;5.13;;;;;;;;;;4934784;29;20096;-66
2022/01/17 11:17:47;;;;;;;9.45;5.45;;;;;;;;;;4934646;29;20048;-66
2022/01/17 11:20:14;;;;;;;7.50;5.22;;;;;;;;;;4933588;29;20051;-67
2022/01/17 11:22:43;;;;;;;6.82;5.13;;;;;;;;;;4915759;29;20064;-66
2022/01/17 11:25:12;;;;;;;9.02;5.30;;;;;;;;;;4915921;29;20138;-67
2022/01/17 11:27:39;;;;;;;8.27;5.40;;;;;;;;;;4915371;29;20052;-67
2022/01/17 11:30:07;;;;;;;9.65;6.03;;;;;;;;;;4915702;29;20052;-67
2022/01/17 11:32:33;;;;;;;8.88;6.13;;;;;;;;;;4932694;29;20099;-66
2022/01/17 11:35:02;;;;;;;9.48;6.70;;;;;;;;;;4934684;29;20119;-67
2022/01/17 11:37:52;;;;;;;9.15;6.30;;;;;;;;;;4934283;29;20111;-65
2022/01/17 11:40:27;;;;;;;11.43;7.45;;;;;;;;;;4934326;29;20052;-66
2022/01/17 11:42:54;;;;;;;9.45;6.75;;;;;;;;;;4915426;29;20567;-67
2022/01/17 11:45:23;;;;;;;10.50;7.15;;;;;;;;;;4915249;29;20124;-67
2022/01/17 11:47:58;;;;;;;11.50;7.50;;;;;;;;;;4922049;29;20047;-67
2022/01/17 11:50:35;;;;;;;9.30;6.30;;;;;;;;;;4934362;29;20090;-65
2022/01/17 11:53:11;;;;;;;9.23;6.03;;;;;;;;;;4934210;29;20103;-67
2022/01/17 11:55:42;;;;;;;15.18;9.10;;;;;;;;;;4933998;29;20060;-67
2022/01/17 11:58:28;;;;;;;8.35;6.35;;;;;;;;;;4925840;29;20060;-67
2022/01/17 12:01:01;;;;;;;8.57;6.15;;;;;;;;;;4915120;29;20123;-68
2022/01/17 12:03:27;;;;;;;;;;;;;;;;;;4916013;29;20127;-67
2022/01/17 12:05:55;;;;;;;6.50;5.05;;;;;;;;;;4915285;29;19923;-67
2022/01/17 12:08:24;;;;;;;6.40;4.85;;;;;;;;;;4924321;29;20055;-68
2022/01/17 12:11:08;;;;;;;13.75;7.35;;;;;;;;;;4932034;29;20055;-67
2022/01/17 12:13:41;;;;;;;6.13;5.15;;;;;;;;;;4931894;29;20103;-67
2022/01/17 12:16:18;;;;;;;;;;;;;;;;;;4932668;29;20122;-67
2022/01/17 12:18:46;;;;;;;7.13;5.00;;;;;;;;;;4919458;29;19927;-67
2022/01/17 12:21:30;;;;;;;9.13;4.88;;;;;;;;;;4912934;29;20500;-67
2022/01/17 12:24:15;;;;;;;6.72;5.28;;;;;;;;;;4912317;29;20566;-67
2022/01/17 12:27:05;;;;;;;5.50;4.93;;;;;;;;;;4912908;29;20067;-67
2022/01/17 12:29:39;;;;;;;7.45;5.65;;;;;;;;;;4930956;29;20150;-66
2022/01/17 12:32:07;;;;;;;8.45;5.35;;;;;;;;;;4933035;29;20079;-69
2022/01/17 12:34:42;;;;;;;7.68;5.47;;;;;;;;;;4935210;29;20055;-68
2022/01/17 12:37:34;;;;;;;8.27;5.68;;;;;;;;;;4922623;29;20063;-67
2022/01/17 12:40:22;;;;;;;7.18;5.35;;;;;;;;;;4916517;29;20113;-68
2022/01/17 12:42:51;;;;;;;8.15;5.45;;;;;;;;;;4916004;29;20591;-66
2022/01/17 12:45:21;;;;;;;7.53;5.20;;;;;;;;;;4916329;29;20056;-67
2022/01/17 12:47:49;;;;;;;7.45;5.88;;;;;;;;;;4933200;29;20047;-68
2022/01/17 12:50:15;;;;;;;7.15;5.68;;;;;;;;;;4934920;29;20098;-67
2022/01/17 12:52:42;;;;;;;7.60;5.43;;;;;;;;;;4933619;29;20504;-67
2022/01/17 12:55:10;;;;;;;6.88;5.07;;;;;;;;;;4934139;29;20114;-68
2022/01/17 12:57:44;;;;;;;8.52;5.82;;;;;;;;;;4923174;29;20055;-66
2022/01/17 13:00:31;;;;;;;7.82;5.45;;;;;;;;;;4932984;29;20099;-67
2022/01/17 13:02:58;;;;;;;7.80;5.97;;;;;;;;;;4932373;29;20052;-68
2022/01/17 13:05:27;;;;;;;6.70;5.15;;;;;;;;;;4931924;29;20043;-67
2022/01/17 13:07:53;;;;;;;7.55;4.97;;;;;;;;;;4933225;29;20122;-67
2022/01/17 13:10:20;;;;;;;6.80;5.00;;;;;;;;;;4933157;29;20471;-67
2022/01/17 13:12:51;;;;;;;9.15;5.15;;;;;;;;;;4932707;29;20051;-66
2022/01/17 13:15:18;;;;;;;8.70;5.03;;;;;;;;;;4929587;29;20052;-67
2022/01/17 13:17:48;;;;;;;8.00;5.40;;;;;;;;;;4940476;28;20135;-66
2022/01/17 13:20:15;;;;;;;8.38;4.90;;;;;;;;;;4947548;28;20051;-67
2022/01/17 13:22:53;;;;;;;6.80;4.63;;;;;;;;;;4932590;29;20467;-66
2022/01/17 13:25:20;;;;;;;7.65;4.88;;;;;;;;;;4932658;29;20079;-67
2022/01/17 13:27:52;;;;;;;8.48;5.30;;;;;;;;;;4932852;29;20051;-67
2022/01/17 13:30:18;;;;;;;9.07;5.22;;;;;;;;;;4933476;29;20503;-66
2022/01/17 13:33:06;;;;;;;10.15;6.45;;;;;;;;;;4933071;29;20098;-67
2022/01/17 13:35:35;;;;;;;8.65;6.05;;;;;;;;;;4932280;29;20048;-65
2022/01/17 13:38:07;;;;;;;8.75;5.00;;;;;;;;;;4933520;29;20138;-68
2022/01/17 13:40:34;;;;;;;6.13;4.65;;;;;;;;;;4936123;29;20055;-69
2022/01/17 13:43:02;;;;;;;8.60;5.72;;;;;;;;;;4934421;29;20102;-69
2022/01/17 13:45:44;;;;;;;8.23;5.60;;;;;;;;;;4933343;29;20268;-68
2022/01/17 13:48:15;;;;;;;6.90;4.53;;;;;;;;;;4930299;29;20090;-66
2022/01/17 13:50:58;;;;;;;9.05;5.40;;;;;;;;;;4946976;28;20043;-65
2022/01/17 13:53:26;;;;;;;8.23;4.70;;;;;;;;;;4933470;29;20051;-64
2022/01/17 13:55:55;;;;;;;9.68;4.82;;;;;;;;;;4932842;29;20067;-67
2022/01/17 13:58:26;;;;;;;6.35;4.40;;;;;;;;;;4937809;29;20051;-67
2022/01/17 14:00:55;;;;;;;4.90;3.92;;;;;;;;;;4934452;29;20112;-66
2022/01/17 14:03:27;;;;;;;6.63;3.78;;;;;;;;;;4932587;29;20047;-67
2022/01/17 14:05:57;;;;;;;8.88;5.10;;;;;;;;;;4931728;29;20122;-67
2022/01/17 14:08:24;;;;;;;6.93;4.50;;;;;;;;;;4934089;29;20122;-66
2022/01/17 14:10:51;;;;;;;7.65;4.60;;;;;;;;;;4933911;29;20051;-66
2022/01/17 14:13:21;;;;;;;7.65;4.00;;;;;;;;;;4933991;29;20602;-65
2022/01/17 14:15:48;;;;;;;6.18;3.70;;;;;;;;;;4932084;29;20487;-67
2022/01/17 14:18:15;;;;;;;6.80;4.38;;;;;;;;;;4935195;29;20079;-67
2022/01/17 14:20:50;;;;;;;7.35;3.65;;;;;;;;;;4934679;29;20047;-65
2022/01/17 14:23:29;;;;;;;6.15;3.97;;;;;;;;;;4930099;29;20499;-65
2022/01/17 14:25:56;;;;;;;5.50;3.33;;;;;;;;;;4928869;29;20118;-65
2022/01/17 14:28:25;;;;;;;6.05;3.90;;;;;;;;;;4931703;29;20098;-65
2022/01/17 14:30:52;;;;;;;5.15;3.10;;;;;;;;;;4931985;29;20051;-66
2022/01/17 14:33:21;;;;;;;4.63;3.25;;;;;;;;;;4930647;29;20044;-68
2022/01/17 14:36:11;;;;;;;4.45;3.25;;;;;;;;;;4946320;28;20051;-65
2022/01/17 14:38:54;;;;;;;7.30;2.72;;;;;;;;;;4929445;29;20059;-67
2022/01/17 14:41:34;;;;;;;10.00;3.40;;;;;;;;;;4931516;29;20484;-67
2022/01/17 14:44:09;;;;;;;5.38;3.67;;;;;;;;;;4929286;29;20066;-68
2022/01/17 14:46:46;;;;;;;7.75;3.50;;;;;;;;;;4931972;29;20427;-67
2022/01/17 14:49:21;;;;;;;6.65;3.60;;;;;;;;;;4929390;29;20108;-67
2022/01/17 14:51:50;;;;;;;6.10;3.95;;;;;;;;;;4930816;29;20499;-67
2022/01/17 14:54:25;;;;;;;9.60;4.47;;;;;;;;;;4930786;29;20578;-74
2022/01/17 15:00:25;;;;;;;6.03;3.90;;;;;;;;;;4933702;29;20056;-70
2022/01/17 15:05:27;;;;;;;6.32;4.20;;;;;;;;;;4933607;29;20141;-69
2022/01/17 15:07:54;;;;;;;7.60;4.30;;;;;;;;;;4933163;29;20048;-70
2022/01/17 15:10:24;;;;;;;8.48;4.90;;;;;;;;;;4933865;29;20047;-70